createdAt,value
2023-04-16T00:00:05.575Z,0.40
2023-04-16T00:01:07.491Z,0.37
2023-04-16T00:02:09.719Z,0.30
2023-04-16T00:03:12.157Z,0.43
2023-04-16T00:04:14.329Z,0.60
2023-04-16T00:05:16.611Z,0.30
2023-04-16T00:06:18.739Z,0.37
2023-04-16T00:07:21.005Z,0.50
2023-04-16T00:08:26.910Z,0.33
2023-04-16T00:09:28.785Z,0.50
2023-04-16T00:10:31.037Z,0.43
2023-04-16T00:11:32.910Z,0.40
2023-04-16T00:12:35.045Z,0.50
2023-04-16T00:13:37.758Z,0.40
2023-04-16T00:14:39.876Z,0.40
2023-04-16T00:15:41.838Z,0.50
2023-04-16T00:16:43.720Z,0.40
2023-04-16T00:17:46.014Z,0.50
2023-04-16T00:18:48.259Z,0.30
2023-04-16T00:19:50.502Z,0.40
2023-04-16T00:20:53.745Z,0.60
2023-04-16T00:21:55.985Z,0.40
2023-04-16T00:22:58.245Z,0.40
2023-04-16T00:24:00.288Z,0.37
2023-04-16T00:25:02.283Z,0.40
2023-04-16T00:26:04.613Z,0.43
2023-04-16T00:27:06.927Z,0.40
2023-04-16T00:28:10.679Z,0.30
2023-04-16T00:29:13.204Z,0.40
2023-04-16T00:30:15.402Z,0.60
2023-04-16T00:31:17.630Z,0.40
2023-04-16T00:32:19.872Z,0.40
2023-04-16T00:33:22.570Z,0.50
2023-04-16T00:34:24.492Z,0.30
2023-04-16T00:35:26.754Z,0.30
2023-04-16T00:36:29.388Z,0.33
2023-04-16T00:37:31.328Z,0.30
2023-04-16T00:38:33.352Z,0.40
2023-04-16T00:39:35.348Z,0.37
2023-04-16T00:40:37.834Z,0.40
2023-04-16T00:41:39.782Z,0.40
2023-04-16T00:42:42.016Z,0.20
2023-04-16T00:43:44.240Z,0.30
2023-04-16T00:44:46.213Z,0.40
2023-04-16T00:45:48.328Z,0.30
2023-04-16T00:46:51.387Z,0.30
2023-04-16T00:47:53.333Z,0.40
2023-04-16T00:48:56.518Z,0.20
2023-04-16T00:49:58.544Z,0.30
2023-04-16T00:51:01.740Z,0.30
2023-04-16T00:52:04.020Z,0.30
2023-04-16T00:53:06.215Z,0.40
2023-04-16T00:54:08.056Z,0.60
2023-04-16T00:55:13.826Z,1.53
2023-04-16T00:56:17.657Z,1.43
2023-04-16T00:57:21.430Z,0.70
2023-04-16T00:58:24.024Z,0.50
2023-04-16T00:59:27.666Z,0.60
2023-04-16T01:00:29.954Z,0.50
2023-04-16T01:01:31.870Z,0.60
2023-04-16T01:02:34.700Z,0.60
2023-04-16T01:03:43.763Z,0.53
2023-04-16T01:04:46.398Z,0.30
2023-04-16T01:05:49.441Z,0.30
2023-04-16T01:06:51.294Z,0.40
2023-04-16T01:07:53.666Z,0.47
2023-04-16T01:08:55.896Z,0.40
2023-04-16T01:09:58.368Z,0.40
2023-04-16T01:11:00.397Z,0.20
2023-04-16T01:12:02.315Z,0.40
2023-04-16T01:13:04.454Z,0.40
2023-04-16T01:14:06.485Z,0.50
2023-04-16T01:15:09.190Z,0.27
2023-04-16T01:16:12.971Z,0.40
2023-04-16T01:17:15.050Z,0.33
2023-04-16T01:18:19.683Z,0.30
2023-04-16T01:19:21.585Z,0.40
2023-04-16T01:20:23.552Z,0.40
2023-04-16T01:21:26.740Z,0.40
2023-04-16T01:22:29.338Z,0.40
2023-04-16T01:23:32.084Z,0.50
2023-04-16T01:24:35.056Z,0.30
2023-04-16T01:25:36.986Z,0.30
2023-04-16T01:26:39.074Z,0.30
2023-04-16T01:27:41.215Z,0.40
2023-04-16T01:28:43.774Z,0.27
2023-04-16T01:29:47.258Z,0.20
2023-04-16T01:30:49.231Z,0.20
2023-04-16T01:31:51.246Z,0.40
2023-04-16T01:32:53.310Z,0.30
2023-04-16T01:33:55.255Z,0.30
2023-04-16T01:34:57.116Z,0.30
2023-04-16T01:35:58.960Z,0.20
2023-04-16T01:37:00.883Z,0.30
2023-04-16T01:38:04.137Z,0.20
2023-04-16T01:39:06.313Z,0.40
2023-04-16T01:40:08.879Z,0.30
2023-04-16T01:41:10.698Z,0.40
2023-04-16T01:42:12.670Z,0.30
2023-04-16T01:43:14.600Z,0.40
2023-04-16T01:44:16.591Z,0.30
2023-04-16T01:45:18.758Z,0.43
2023-04-16T01:46:33.561Z,0.30
2023-04-16T01:47:36.011Z,0.40
2023-04-16T01:48:38.351Z,0.20
2023-04-16T01:49:40.962Z,0.20
2023-04-16T01:50:42.903Z,0.40
2023-04-16T01:51:45.046Z,0.30
2023-04-16T01:52:47.509Z,0.20
2023-04-16T01:53:50.608Z,0.40
2023-04-16T01:54:52.623Z,0.30
2023-04-16T01:55:54.592Z,0.33
2023-04-16T01:56:57.097Z,0.30
2023-04-16T01:57:58.899Z,0.50
2023-04-16T01:59:00.787Z,0.30
2023-04-16T02:00:04.027Z,0.23
2023-04-16T02:01:06.134Z,0.40
2023-04-16T02:02:11.633Z,0.30
2023-04-16T02:03:13.794Z,0.30
2023-04-16T02:04:15.928Z,0.30
2023-04-16T02:05:18.367Z,0.40
2023-04-16T02:06:20.774Z,0.40
2023-04-16T02:07:22.630Z,0.33
2023-04-16T02:08:24.836Z,0.30
2023-04-16T02:09:26.672Z,0.33
2023-04-16T02:10:28.503Z,0.50
2023-04-16T02:11:30.317Z,0.37
2023-04-16T02:12:32.196Z,0.30
2023-04-16T02:13:34.143Z,0.40
2023-04-16T02:14:35.997Z,0.57
2023-04-16T02:15:37.977Z,0.30
2023-04-16T02:16:40.056Z,0.23
2023-04-16T02:17:41.986Z,0.60
2023-04-16T02:18:44.285Z,0.20
2023-04-16T02:19:46.348Z,0.30
2023-04-16T02:20:50.011Z,0.20
2023-04-16T02:21:53.529Z,0.60
2023-04-16T02:22:55.866Z,0.30
2023-04-16T02:23:57.793Z,0.40
2023-04-16T02:24:59.692Z,0.30
2023-04-16T02:26:03.987Z,0.40
2023-04-16T02:27:06.460Z,0.30
2023-04-16T02:28:11.989Z,0.30
2023-04-16T02:29:14.263Z,0.30
2023-04-16T02:30:16.856Z,0.40
2023-04-16T02:31:19.915Z,0.20
2023-04-16T02:32:22.682Z,0.10
2023-04-16T02:33:26.682Z,0.20
2023-04-16T02:34:28.640Z,0.40
2023-04-16T02:35:30.644Z,0.33
2023-04-16T02:36:33.160Z,0.20
2023-04-16T02:37:35.428Z,0.30
2023-04-16T02:38:37.853Z,0.40
2023-04-16T02:39:39.650Z,0.30
2023-04-16T02:40:41.819Z,0.30
2023-04-16T02:41:43.660Z,0.37
2023-04-16T02:42:45.496Z,0.30
2023-04-16T02:43:47.724Z,0.40
2023-04-16T02:44:49.890Z,0.37
2023-04-16T02:45:51.925Z,0.20
2023-04-16T02:46:53.800Z,0.30
2023-04-16T02:47:55.648Z,0.30
2023-04-16T02:48:57.625Z,0.30
2023-04-16T02:49:59.483Z,0.30
2023-04-16T02:51:01.476Z,0.30
2023-04-16T02:52:03.407Z,0.30
2023-04-16T02:53:06.599Z,0.20
2023-04-16T02:54:08.742Z,0.30
2023-04-16T02:55:11.738Z,0.20
2023-04-16T02:56:13.659Z,0.30
2023-04-16T02:57:15.676Z,0.20
2023-04-16T02:58:17.785Z,0.30
2023-04-16T02:59:19.672Z,0.27
2023-04-16T03:00:21.829Z,0.30
2023-04-16T03:01:23.727Z,0.30
2023-04-16T03:02:26.020Z,0.23
2023-04-16T03:03:28.138Z,0.10
2023-04-16T03:04:30.105Z,0.30
2023-04-16T03:05:32.275Z,0.50
2023-04-16T03:06:34.191Z,0.30
2023-04-16T03:07:36.143Z,0.30
2023-04-16T03:08:38.044Z,0.20
2023-04-16T03:09:40.565Z,0.20
2023-04-16T03:10:42.451Z,0.30
2023-04-16T03:11:44.370Z,0.20
2023-04-16T03:12:46.295Z,0.40
2023-04-16T03:13:48.659Z,0.20
2023-04-16T03:14:53.752Z,0.30
2023-04-16T03:15:55.997Z,0.30
2023-04-16T03:16:58.828Z,0.27
2023-04-16T03:18:01.442Z,0.13
2023-04-16T03:19:03.357Z,0.20
2023-04-16T03:20:06.565Z,0.20
2023-04-16T03:21:08.464Z,0.30
2023-04-16T03:22:10.533Z,0.20
2023-04-16T03:23:12.471Z,0.30
2023-04-16T03:24:14.542Z,0.20
2023-04-16T03:25:16.484Z,0.40
2023-04-16T03:26:18.338Z,0.30
2023-04-16T03:27:20.372Z,0.20
2023-04-16T03:28:22.291Z,0.30
2023-04-16T03:29:24.661Z,0.20
2023-04-16T03:30:26.922Z,0.20
2023-04-16T03:31:28.768Z,0.30
2023-04-16T03:32:31.141Z,0.30
2023-04-16T03:33:33.037Z,0.20
2023-04-16T03:34:36.858Z,0.20
2023-04-16T03:35:38.660Z,0.20
2023-04-16T03:36:40.984Z,0.20
2023-04-16T03:37:42.921Z,0.30
2023-04-16T03:38:44.791Z,0.20
2023-04-16T03:39:46.890Z,0.30
2023-04-16T03:40:48.965Z,0.30
2023-04-16T03:41:50.790Z,0.30
2023-04-16T03:42:52.627Z,0.20
2023-04-16T03:43:54.669Z,0.20
2023-04-16T03:44:57.322Z,0.30
2023-04-16T03:45:59.164Z,0.30
2023-04-16T03:47:01.206Z,0.30
2023-04-16T03:48:03.193Z,0.20
2023-04-16T03:49:05.243Z,0.30
2023-04-16T03:50:07.630Z,0.20
2023-04-16T03:51:09.486Z,0.30
2023-04-16T03:52:11.630Z,0.30
2023-04-16T03:53:14.031Z,0.23
2023-04-16T03:54:16.024Z,0.20
2023-04-16T03:55:17.910Z,0.30
2023-04-16T03:56:20.081Z,0.10
2023-04-16T03:57:22.135Z,0.10
2023-04-16T03:58:24.004Z,0.20
2023-04-16T03:59:26.052Z,0.30
2023-04-16T04:00:28.184Z,0.30
2023-04-16T04:01:30.515Z,0.20
2023-04-16T04:02:32.567Z,0.27
2023-04-16T04:03:34.979Z,0.30
2023-04-16T04:04:37.070Z,0.30
2023-04-16T04:05:43.041Z,0.10
2023-04-16T04:06:46.946Z,0.20
2023-04-16T04:07:48.789Z,0.30
2023-04-16T04:08:50.679Z,0.30
2023-04-16T04:09:52.791Z,0.20
2023-04-16T04:10:54.716Z,0.30
2023-04-16T04:11:56.525Z,0.27
2023-04-16T04:12:58.402Z,0.20
2023-04-16T04:14:00.405Z,0.30
2023-04-16T04:15:02.371Z,0.40
2023-04-16T04:16:06.046Z,0.30
2023-04-16T04:17:09.254Z,0.20
2023-04-16T04:18:11.163Z,0.30
2023-04-16T04:19:13.005Z,0.40
2023-04-16T04:20:14.909Z,0.20
2023-04-16T04:21:16.865Z,0.30
2023-04-16T04:22:19.034Z,0.40
2023-04-16T04:23:20.906Z,0.27
2023-04-16T04:24:22.738Z,0.20
2023-04-16T04:25:25.028Z,0.30
2023-04-16T04:26:26.922Z,0.40
2023-04-16T04:27:29.178Z,0.30
2023-04-16T04:28:34.408Z,0.20
2023-04-16T04:29:36.309Z,0.20
2023-04-16T04:30:38.470Z,0.30
2023-04-16T04:31:40.992Z,0.30
2023-04-16T04:32:43.346Z,0.30
2023-04-16T04:33:45.439Z,0.20
2023-04-16T04:34:47.327Z,0.20
2023-04-16T04:35:49.532Z,0.33
2023-04-16T04:36:51.421Z,0.20
2023-04-16T04:37:53.631Z,0.20
2023-04-16T04:38:55.493Z,0.20
2023-04-16T04:39:57.734Z,0.17
2023-04-16T04:40:59.849Z,0.30
2023-04-16T04:42:03.164Z,0.30
2023-04-16T04:43:05.125Z,0.10
2023-04-16T04:44:07.012Z,0.30
2023-04-16T04:45:10.060Z,0.30
2023-04-16T04:46:12.254Z,0.30
2023-04-16T04:47:15.705Z,0.40
2023-04-16T04:48:17.869Z,0.30
2023-04-16T04:49:20.017Z,0.20
2023-04-16T04:50:22.434Z,0.30
2023-04-16T04:51:24.437Z,0.20
2023-04-16T04:52:26.302Z,0.30
2023-04-16T04:53:28.126Z,0.30
2023-04-16T04:54:32.067Z,0.10
2023-04-16T04:55:33.899Z,0.30
2023-04-16T04:56:35.816Z,0.30
2023-04-16T04:57:37.640Z,0.23
2023-04-16T04:58:39.589Z,0.30
2023-04-16T04:59:41.416Z,0.20
2023-04-16T05:00:43.287Z,0.20
2023-04-16T05:01:45.407Z,0.20
2023-04-16T05:02:47.851Z,0.30
2023-04-16T05:03:49.980Z,0.20
2023-04-16T05:04:52.100Z,0.20
2023-04-16T05:05:54.426Z,0.20
2023-04-16T05:06:56.228Z,0.40
2023-04-16T05:07:58.142Z,0.40
2023-04-16T05:09:00.049Z,0.37
2023-04-16T05:10:02.026Z,0.23
2023-04-16T05:11:03.987Z,0.30
2023-04-16T05:12:06.288Z,0.40
2023-04-16T05:13:08.179Z,0.20
2023-04-16T05:14:10.082Z,0.30
2023-04-16T05:15:12.018Z,0.30
2023-04-16T05:16:13.999Z,0.20
2023-04-16T05:17:15.874Z,0.30
2023-04-16T05:18:17.717Z,0.30
2023-04-16T05:19:19.589Z,0.30
2023-04-16T05:20:23.388Z,0.23
2023-04-16T05:21:26.724Z,0.30
2023-04-16T05:22:28.836Z,0.20
2023-04-16T05:23:30.787Z,0.30
2023-04-16T05:24:32.755Z,0.20
2023-04-16T05:25:34.897Z,0.30
2023-04-16T05:26:36.813Z,0.20
2023-04-16T05:27:38.946Z,0.10
2023-04-16T05:28:41.161Z,0.30
2023-04-16T05:29:43.285Z,0.20
2023-04-16T05:30:45.238Z,0.40
2023-04-16T05:31:47.058Z,0.40
2023-04-16T05:32:49.015Z,0.50
2023-04-16T05:33:50.865Z,0.70
2023-04-16T05:34:52.989Z,1.10
2023-04-16T05:35:54.872Z,1.40
2023-04-16T05:36:56.786Z,1.27
2023-04-16T05:37:58.723Z,1.30
2023-04-16T05:39:00.697Z,1.60
2023-04-16T05:40:02.736Z,1.40
2023-04-16T05:41:06.461Z,1.70
2023-04-16T05:42:08.694Z,1.80
2023-04-16T05:43:11.048Z,1.77
2023-04-16T05:44:13.276Z,1.90
2023-04-16T05:45:15.362Z,1.80
2023-04-16T05:46:17.534Z,1.67
2023-04-16T05:47:19.813Z,1.70
2023-04-16T05:48:21.725Z,1.57
2023-04-16T05:49:23.669Z,2.00
2023-04-16T05:50:25.656Z,2.03
2023-04-16T05:51:28.044Z,1.83
2023-04-16T05:52:30.355Z,1.90
2023-04-16T05:53:32.204Z,2.30
2023-04-16T05:54:34.181Z,1.90
2023-04-16T05:55:39.292Z,2.03
2023-04-16T05:56:41.273Z,1.83
2023-04-16T05:57:43.114Z,2.20
2023-04-16T05:58:45.276Z,2.07
2023-04-16T05:59:47.427Z,1.97
2023-04-16T06:00:49.600Z,1.90
2023-04-16T06:01:51.512Z,1.73
2023-04-16T06:02:53.716Z,1.90
2023-04-16T06:03:55.945Z,1.67
2023-04-16T06:04:57.903Z,2.30
2023-04-16T06:06:00.319Z,1.83
2023-04-16T06:07:02.554Z,2.10
2023-04-16T06:08:04.736Z,1.80
2023-04-16T06:09:06.998Z,1.90
2023-04-16T06:10:09.495Z,1.87
2023-04-16T06:11:11.611Z,1.70
2023-04-16T06:12:13.794Z,1.77
2023-04-16T06:13:15.775Z,1.67
2023-04-16T06:14:17.988Z,1.83
2023-04-16T06:15:20.316Z,1.93
2023-04-16T06:16:22.436Z,1.70
2023-04-16T06:17:24.422Z,2.00
2023-04-16T06:18:26.472Z,1.87
2023-04-16T06:19:28.658Z,1.87
2023-04-16T06:20:31.253Z,1.67
2023-04-16T06:21:33.549Z,1.73
2023-04-16T06:22:35.568Z,1.87
2023-04-16T06:23:37.429Z,1.70
2023-04-16T06:24:39.478Z,1.80
2023-04-16T06:25:41.542Z,1.80
2023-04-16T06:26:43.736Z,1.60
2023-04-16T06:27:45.824Z,1.70
2023-04-16T06:28:48.108Z,1.60
2023-04-16T06:29:50.853Z,1.73
2023-04-16T06:30:52.981Z,1.80
2023-04-16T06:31:55.648Z,1.33
2023-04-16T06:32:57.675Z,1.50
2023-04-16T06:33:59.674Z,1.67
2023-04-16T06:35:02.077Z,1.20
2023-04-16T06:36:04.382Z,1.40
2023-04-16T06:37:10.360Z,1.47
2023-04-16T06:38:12.615Z,1.63
2023-04-16T06:39:14.519Z,1.50
2023-04-16T06:40:16.562Z,1.53
2023-04-16T06:41:18.570Z,1.30
2023-04-16T06:42:20.900Z,2.47
2023-04-16T06:43:23.185Z,3.30
2023-04-16T06:44:25.515Z,3.03
2023-04-16T06:45:27.387Z,3.30
2023-04-16T06:46:29.300Z,2.90
2023-04-16T06:47:31.318Z,2.43
2023-04-16T06:48:33.507Z,2.00
2023-04-16T06:49:35.576Z,2.07
2023-04-16T06:50:37.764Z,2.10
2023-04-16T06:51:39.722Z,2.00
2023-04-16T06:52:41.692Z,1.73
2023-04-16T06:53:44.112Z,1.53
2023-04-16T06:54:46.047Z,1.63
2023-04-16T06:55:47.858Z,1.60
2023-04-16T06:56:50.194Z,1.80
2023-04-16T06:57:52.288Z,1.30
2023-04-16T06:58:54.751Z,1.50
2023-04-16T06:59:56.927Z,1.50
2023-04-16T07:00:59.777Z,1.63
2023-04-16T07:02:02.005Z,1.50
2023-04-16T07:03:04.159Z,1.40
2023-04-16T07:04:06.557Z,1.50
2023-04-16T07:05:09.116Z,1.70
2023-04-16T07:06:11.773Z,1.50
2023-04-16T07:07:14.167Z,1.20
2023-04-16T07:08:16.444Z,1.40
2023-04-16T07:09:18.792Z,1.30
2023-04-16T07:10:21.272Z,1.30
2023-04-16T07:11:23.842Z,1.33
2023-04-16T07:12:27.190Z,1.67
2023-04-16T07:13:29.808Z,1.47
2023-04-16T07:14:32.178Z,1.50
2023-04-16T07:15:34.813Z,1.60
2023-04-16T07:16:38.202Z,1.30
2023-04-16T07:17:40.691Z,1.27
2023-04-16T07:18:43.362Z,1.27
2023-04-16T07:19:46.254Z,1.33
2023-04-16T07:20:49.103Z,1.30
2023-04-16T07:21:52.245Z,1.57
2023-04-16T07:22:54.947Z,1.40
2023-04-16T07:23:57.212Z,1.20
2023-04-16T07:24:59.668Z,1.47
2023-04-16T07:26:01.972Z,1.30
2023-04-16T07:27:04.313Z,1.10
2023-04-16T07:28:06.757Z,1.17
2023-04-16T07:29:09.486Z,1.17
2023-04-16T07:30:12.246Z,1.40
2023-04-16T07:31:14.603Z,1.80
2023-04-16T07:32:17.505Z,1.30
2023-04-16T07:33:19.810Z,1.50
2023-04-16T07:34:22.474Z,1.23
2023-04-16T07:35:24.790Z,1.33
2023-04-16T07:36:28.451Z,1.10
2023-04-16T07:37:31.007Z,1.33
2023-04-16T07:38:34.760Z,1.30
2023-04-16T07:39:37.116Z,2.83
2023-04-16T07:40:39.419Z,2.50
2023-04-16T07:41:42.047Z,3.80
2023-04-16T07:42:44.686Z,2.30
2023-04-16T07:43:47.093Z,1.90
2023-04-16T07:44:49.399Z,1.50
2023-04-16T07:45:52.140Z,1.23
2023-04-16T07:46:54.799Z,1.33
2023-04-16T07:47:57.957Z,1.17
2023-04-16T07:49:00.518Z,1.40
2023-04-16T07:50:03.043Z,1.30
2023-04-16T07:51:05.524Z,1.57
2023-04-16T07:52:08.232Z,1.20
2023-04-16T07:53:11.001Z,1.30
2023-04-16T07:54:13.348Z,1.17
2023-04-16T07:55:15.932Z,1.30
2023-04-16T07:56:18.534Z,1.20
2023-04-16T07:57:21.606Z,1.40
2023-04-16T07:58:24.257Z,1.33
2023-04-16T07:59:26.794Z,1.10
2023-04-16T08:00:30.324Z,1.30
2023-04-16T08:01:32.858Z,1.20
2023-04-16T08:02:35.550Z,1.07
2023-04-16T08:03:38.260Z,1.30
2023-04-16T08:04:42.432Z,1.27
2023-04-16T08:05:45.042Z,1.00
2023-04-16T08:06:47.695Z,1.57
2023-04-16T08:07:50.221Z,1.20
2023-04-16T08:08:52.869Z,2.03
2023-04-16T08:09:55.679Z,1.70
2023-04-16T08:10:58.172Z,1.30
2023-04-16T08:12:01.496Z,1.17
2023-04-16T08:13:06.844Z,1.53
2023-04-16T08:14:09.372Z,1.40
2023-04-16T08:15:11.967Z,1.30
2023-04-16T08:16:14.537Z,1.20
2023-04-16T08:17:16.963Z,1.40
2023-04-16T08:18:20.030Z,1.00
2023-04-16T08:19:22.418Z,1.00
2023-04-16T08:20:25.032Z,1.03
2023-04-16T08:21:28.207Z,1.20
2023-04-16T08:22:30.858Z,1.30
2023-04-16T08:23:33.811Z,1.07
2023-04-16T08:24:36.418Z,1.13
2023-04-16T08:25:39.062Z,1.30
2023-04-16T08:26:41.737Z,1.23
2023-04-16T08:27:44.298Z,1.10
2023-04-16T08:28:46.751Z,1.20
2023-04-16T08:29:49.259Z,1.10
2023-04-16T08:30:51.777Z,1.20
2023-04-16T08:31:54.886Z,1.33
2023-04-16T08:32:57.715Z,1.00
2023-04-16T08:34:01.001Z,1.07
2023-04-16T08:35:03.560Z,1.50
2023-04-16T08:36:06.391Z,1.20
2023-04-16T08:37:08.989Z,1.00
2023-04-16T08:38:11.343Z,1.10
2023-04-16T08:39:13.778Z,1.17
2023-04-16T08:40:16.514Z,1.30
2023-04-16T08:41:21.987Z,1.27
2023-04-16T08:42:37.520Z,1.00
2023-04-16T08:43:44.809Z,1.20
2023-04-16T08:44:52.443Z,1.13
2023-04-16T08:45:57.381Z,1.20
2023-04-16T08:47:00.631Z,1.67
2023-04-16T08:48:06.874Z,1.30
2023-04-16T08:49:13.851Z,1.10
2023-04-16T08:50:17.580Z,1.20
2023-04-16T08:51:22.444Z,1.30
2023-04-16T08:52:26.150Z,1.53
2023-04-16T08:53:42.443Z,1.40
2023-04-16T08:55:01.115Z,1.20
2023-04-16T08:56:05.705Z,1.10
2023-04-16T08:57:12.103Z,1.20
2023-04-16T08:58:18.845Z,1.10
2023-04-16T08:59:22.398Z,1.10
2023-04-16T09:00:25.025Z,1.20
2023-04-16T09:01:27.740Z,1.40
2023-04-16T09:02:31.452Z,1.13
2023-04-16T09:03:36.506Z,1.50
2023-04-16T09:04:39.886Z,1.40
2023-04-16T09:05:44.030Z,1.77
2023-04-16T09:06:48.241Z,1.80
2023-04-16T09:07:52.511Z,2.03
2023-04-16T09:08:58.146Z,1.70
2023-04-16T09:10:01.910Z,2.00
2023-04-16T09:11:04.466Z,1.40
2023-04-16T09:12:07.932Z,1.20
2023-04-16T09:13:13.441Z,1.10
2023-04-16T09:14:16.059Z,1.30
2023-04-16T09:15:20.747Z,1.27
2023-04-16T09:16:23.715Z,1.17
2023-04-16T09:17:26.584Z,1.40
2023-04-16T09:18:29.327Z,1.17
2023-04-16T09:19:31.610Z,1.00
2023-04-16T09:20:34.605Z,1.17
2023-04-16T09:21:37.257Z,1.13
2023-04-16T09:22:40.517Z,1.00
2023-04-16T09:23:43.775Z,1.17
2023-04-16T09:24:46.228Z,1.03
2023-04-16T09:25:48.507Z,1.10
2023-04-16T09:26:52.922Z,1.20
2023-04-16T09:27:55.601Z,1.20
2023-04-16T09:28:58.326Z,1.10
2023-04-16T09:30:00.925Z,1.20
2023-04-16T09:31:14.928Z,1.10
2023-04-16T09:32:17.433Z,1.40
2023-04-16T09:33:24.473Z,1.30
2023-04-16T09:34:27.116Z,0.97
2023-04-16T09:35:49.601Z,1.20
2023-04-16T09:36:52.121Z,1.23
2023-04-16T09:37:58.455Z,0.97
2023-04-16T09:39:01.488Z,1.07
2023-04-16T09:40:05.076Z,1.00
2023-04-16T09:41:08.614Z,1.20
2023-04-16T09:42:11.882Z,1.00
2023-04-16T09:43:18.946Z,0.90
2023-04-16T09:44:21.299Z,1.00
2023-04-16T09:45:23.797Z,1.13
2023-04-16T09:46:36.196Z,1.10
2023-04-16T09:47:43.790Z,1.50
2023-04-16T09:48:47.424Z,0.90
2023-04-16T09:49:50.483Z,1.00
2023-04-16T09:50:52.736Z,0.93
2023-04-16T09:51:56.359Z,1.00
2023-04-16T09:53:03.655Z,1.00
2023-04-16T09:54:07.960Z,1.20
2023-04-16T09:55:10.547Z,1.20
2023-04-16T09:56:13.806Z,0.90
2023-04-16T09:57:23.251Z,1.23
2023-04-16T09:58:26.128Z,0.90
2023-04-16T09:59:33.987Z,1.00
2023-04-16T10:00:36.253Z,1.00
2023-04-16T10:01:47.210Z,1.13
2023-04-16T10:02:50.823Z,1.37
2023-04-16T10:03:58.155Z,1.10
2023-04-16T10:05:05.825Z,1.10
2023-04-16T10:06:22.364Z,1.17
2023-04-16T10:07:29.406Z,1.00
2023-04-16T10:08:31.993Z,1.30
2023-04-16T10:09:39.278Z,0.97
2023-04-16T10:10:42.049Z,1.20
2023-04-16T10:11:44.836Z,0.70
2023-04-16T10:12:47.172Z,1.03
2023-04-16T10:13:49.861Z,0.73
2023-04-16T10:14:52.285Z,1.00
2023-04-16T10:15:57.373Z,1.00
2023-04-16T10:17:00.307Z,1.13
2023-04-16T10:18:03.720Z,1.00
2023-04-16T10:19:06.100Z,0.97
2023-04-16T10:20:09.344Z,0.70
2023-04-16T10:21:13.126Z,1.00
2023-04-16T10:22:16.592Z,1.20
2023-04-16T10:23:21.371Z,1.40
2023-04-16T10:24:24.966Z,1.13
2023-04-16T10:25:27.951Z,0.90
2023-04-16T10:26:31.387Z,1.00
2023-04-16T10:27:34.115Z,0.80
2023-04-16T10:28:36.858Z,0.90
2023-04-16T10:29:39.960Z,1.00
2023-04-16T10:30:52.687Z,0.87
2023-04-16T10:31:57.235Z,0.80
2023-04-16T10:33:00.762Z,0.60
2023-04-16T10:34:04.761Z,0.83
2023-04-16T10:35:07.463Z,0.97
2023-04-16T10:36:12.765Z,0.90
2023-04-16T10:37:18.333Z,0.87
2023-04-16T10:38:26.948Z,1.00
2023-04-16T10:39:29.838Z,0.90
2023-04-16T10:40:32.559Z,1.33
2023-04-16T10:41:34.854Z,0.83
2023-04-16T10:42:39.294Z,0.80
2023-04-16T10:43:46.578Z,0.90
2023-04-16T10:44:48.981Z,1.07
2023-04-16T10:45:51.296Z,0.93
2023-04-16T10:46:55.877Z,1.00
2023-04-16T10:47:59.156Z,0.83
2023-04-16T10:49:12.370Z,1.10
2023-04-16T10:50:17.517Z,0.70
2023-04-16T10:51:29.502Z,1.00
2023-04-16T10:52:31.789Z,0.70
2023-04-16T10:53:37.180Z,0.87
2023-04-16T10:54:41.018Z,1.00
2023-04-16T10:56:02.684Z,0.80
2023-04-16T10:57:07.298Z,0.73
2023-04-16T10:58:31.529Z,0.93
2023-04-16T10:59:35.654Z,1.40
2023-04-16T11:00:54.219Z,0.80
2023-04-16T11:01:59.339Z,0.87
2023-04-16T11:03:02.376Z,0.90
2023-04-16T11:04:25.777Z,1.03
2023-04-16T11:05:47.119Z,0.80
2023-04-16T11:07:18.812Z,0.73
2023-04-16T11:08:21.425Z,1.00
2023-04-16T11:09:49.780Z,0.90
2023-04-16T11:10:52.359Z,0.70
2023-04-16T11:11:56.909Z,0.80
2023-04-16T11:13:00.372Z,0.90
2023-04-16T11:14:06.882Z,1.10
2023-04-16T11:15:10.712Z,1.00
2023-04-16T11:16:17.495Z,0.90
2023-04-16T11:17:21.307Z,1.00
2023-04-16T11:18:24.250Z,0.83
2023-04-16T11:19:27.054Z,0.90
2023-04-16T11:20:29.652Z,0.90
2023-04-16T11:21:32.862Z,1.00
2023-04-16T11:22:38.564Z,0.80
2023-04-16T11:23:49.129Z,0.70
2023-04-16T11:24:56.716Z,0.90
2023-04-16T11:25:59.529Z,0.77
2023-04-16T11:27:02.080Z,0.80
2023-04-16T11:28:04.373Z,1.00
2023-04-16T11:29:15.804Z,0.70
2023-04-16T11:30:19.502Z,1.00
2023-04-16T11:31:23.398Z,0.80
2023-04-16T11:32:26.243Z,0.80
2023-04-16T11:33:31.448Z,0.80
2023-04-16T11:34:33.835Z,0.73
2023-04-16T11:35:36.532Z,0.80
2023-04-16T11:36:49.988Z,1.00
2023-04-16T11:37:57.125Z,0.83
2023-04-16T11:39:04.386Z,0.77
2023-04-16T11:40:08.390Z,0.80
2023-04-16T11:41:11.173Z,0.80
2023-04-16T11:42:21.331Z,1.00
2023-04-16T11:43:23.987Z,0.73
2023-04-16T11:44:27.963Z,0.90
2023-04-16T11:45:30.344Z,0.80
2023-04-16T11:46:40.552Z,0.70
2023-04-16T11:47:51.776Z,1.20
2023-04-16T11:48:56.091Z,1.00
2023-04-16T11:50:18.453Z,0.80
2023-04-16T11:51:23.331Z,1.17
2023-04-16T11:52:27.488Z,1.00
2023-04-16T11:53:29.757Z,0.70
2023-04-16T11:54:34.817Z,0.80
2023-04-16T11:55:46.983Z,0.70
2023-04-16T11:56:51.033Z,0.87
2023-04-16T11:57:53.282Z,1.00
2023-04-16T11:59:17.956Z,0.97
2023-04-16T12:00:24.363Z,0.90
2023-04-16T12:01:27.386Z,0.77
2023-04-16T12:02:41.209Z,0.80
2023-04-16T12:03:49.119Z,0.93
2023-04-16T12:04:51.865Z,1.10
2023-04-16T12:05:54.235Z,1.00
2023-04-16T12:07:09.706Z,0.77
2023-04-16T12:08:13.176Z,0.63
2023-04-16T12:09:27.495Z,0.93
2023-04-16T12:10:31.102Z,1.00
2023-04-16T12:11:40.738Z,1.00
2023-04-16T12:12:43.766Z,0.80
2023-04-16T12:14:10.113Z,0.77
2023-04-16T12:15:12.483Z,1.00
2023-04-16T12:16:20.265Z,1.10
2023-04-16T12:17:23.101Z,0.70
2023-04-16T12:18:27.169Z,0.70
2023-04-16T12:19:30.344Z,0.90
2023-04-16T12:20:41.896Z,0.93
2023-04-16T12:21:48.805Z,0.90
2023-04-16T12:22:53.153Z,0.80
2023-04-16T12:23:55.559Z,0.70
2023-04-16T12:25:03.184Z,0.93
2023-04-16T12:26:10.983Z,0.80
2023-04-16T12:27:13.331Z,0.70
2023-04-16T12:28:16.542Z,0.87
2023-04-16T12:29:20.574Z,2.33
2023-04-16T12:30:25.037Z,0.73
2023-04-16T12:31:39.584Z,0.90
2023-04-16T12:32:49.943Z,1.03
2023-04-16T12:34:04.156Z,1.07
2023-04-16T12:35:06.718Z,0.80
2023-04-16T12:36:19.676Z,1.20
2023-04-16T12:37:22.215Z,1.10
2023-04-16T12:38:25.815Z,0.90
2023-04-16T12:39:28.308Z,1.30
2023-04-16T12:40:30.760Z,1.20
2023-04-16T12:41:34.254Z,1.10
2023-04-16T12:42:36.670Z,1.20
2023-04-16T12:43:39.247Z,1.20
2023-04-16T12:44:41.592Z,1.07
2023-04-16T12:45:44.584Z,1.10
2023-04-16T12:46:47.008Z,1.13
2023-04-16T12:47:50.711Z,0.80
2023-04-16T12:48:53.004Z,0.97
2023-04-16T12:49:57.989Z,1.13
2023-04-16T12:51:00.640Z,1.03
2023-04-16T12:52:03.761Z,1.00
2023-04-16T12:53:06.319Z,0.87
2023-04-16T12:54:08.756Z,0.87
2023-04-16T12:55:11.722Z,0.90
2023-04-16T12:56:14.100Z,1.30
2023-04-16T12:57:16.664Z,0.97
2023-04-16T12:58:19.192Z,1.20
2023-04-16T12:59:21.436Z,1.20
2023-04-16T13:00:23.731Z,1.00
2023-04-16T13:01:26.083Z,0.93
2023-04-16T13:02:28.801Z,1.10
2023-04-16T13:03:31.341Z,1.03
2023-04-16T13:04:33.983Z,0.90
2023-04-16T13:05:36.765Z,0.87
2023-04-16T13:06:40.051Z,0.83
2023-04-16T13:07:42.782Z,1.03
2023-04-16T13:08:45.944Z,0.90
2023-04-16T13:09:48.525Z,1.13
2023-04-16T13:10:51.046Z,1.10
2023-04-16T13:11:53.733Z,0.90
2023-04-16T13:12:56.013Z,1.10
2023-04-16T13:13:58.662Z,0.93
2023-04-16T13:15:01.069Z,1.07
2023-04-16T13:16:06.544Z,1.00
2023-04-16T13:17:09.212Z,1.07
2023-04-16T13:18:11.936Z,0.83
2023-04-16T13:19:15.903Z,1.07
2023-04-16T13:20:18.220Z,1.00
2023-04-16T13:21:20.644Z,1.07
2023-04-16T13:22:23.303Z,1.00
2023-04-16T13:23:26.051Z,1.17
2023-04-16T13:24:28.839Z,1.20
2023-04-16T13:25:31.806Z,1.20
2023-04-16T13:26:34.396Z,1.43
2023-04-16T13:27:36.634Z,1.30
2023-04-16T13:28:38.875Z,1.50
2023-04-16T13:29:41.159Z,1.20
2023-04-16T13:30:44.150Z,1.33
2023-04-16T13:31:46.857Z,1.20
2023-04-16T13:32:49.372Z,1.40
2023-04-16T13:33:51.916Z,1.57
2023-04-16T13:34:54.262Z,1.70
2023-04-16T13:35:56.486Z,1.80
2023-04-16T13:36:58.751Z,1.93
2023-04-16T13:38:00.972Z,1.87
2023-04-16T13:39:05.299Z,1.70
2023-04-16T13:40:08.465Z,1.80
2023-04-16T13:41:10.777Z,1.80
2023-04-16T13:42:13.481Z,1.67
2023-04-16T13:43:18.993Z,1.70
2023-04-16T13:44:21.769Z,1.93
2023-04-16T13:45:24.236Z,2.07
2023-04-16T13:46:27.250Z,1.80
2023-04-16T13:47:29.723Z,2.00
2023-04-16T13:48:32.931Z,1.90
2023-04-16T13:49:36.410Z,1.90
2023-04-16T13:50:38.772Z,2.03
2023-04-16T13:51:43.082Z,1.87
2023-04-16T13:52:45.503Z,1.70
2023-04-16T13:53:48.213Z,1.97
2023-04-16T13:54:50.590Z,2.30
2023-04-16T13:55:53.351Z,1.97
2023-04-16T13:56:55.922Z,1.87
2023-04-16T13:57:58.376Z,1.90
2023-04-16T13:59:00.784Z,1.70
2023-04-16T14:00:04.190Z,1.70
2023-04-16T14:01:06.924Z,2.50
2023-04-16T14:02:11.123Z,1.83
2023-04-16T14:03:13.745Z,1.77
2023-04-16T14:04:16.167Z,1.97